createdAt,value
2017-05-26T00:00:08.131Z,66.46
2017-05-26T00:01:07.761Z,66.42
2017-05-26T00:02:07.401Z,66.51
2017-05-26T00:03:08.079Z,66.45
2017-05-26T00:04:15.192Z,66.04
2017-05-26T00:05:08.307Z,66.33
2017-05-26T00:06:08.008Z,66.20
2017-05-26T00:07:07.693Z,66.18
2017-05-26T00:08:08.299Z,66.32
2017-05-26T00:09:07.992Z,66.59
2017-05-26T00:10:07.608Z,66.77
2017-05-26T00:11:08.289Z,66.68
2017-05-26T00:12:07.930Z,66.58
2017-05-26T00:13:07.609Z,66.49
2017-05-26T00:14:08.262Z,66.60
2017-05-26T00:15:08.001Z,66.53
2017-05-26T00:16:07.559Z,66.52
2017-05-26T00:17:08.297Z,66.07
2017-05-26T00:18:08.126Z,66.09
2017-05-26T00:19:07.658Z,66.10
2017-05-26T00:20:08.348Z,65.77
2017-05-26T00:21:08.000Z,65.81
2017-05-26T00:22:07.647Z,65.90
2017-05-26T00:23:08.374Z,65.83
2017-05-26T00:24:08.006Z,66.01
2017-05-26T00:25:07.721Z,66.02
2017-05-26T00:26:08.321Z,66.10
2017-05-26T00:27:07.968Z,65.90
2017-05-26T00:28:07.608Z,65.64
2017-05-26T00:29:08.280Z,65.58
2017-05-26T00:30:07.881Z,65.32
2017-05-26T00:31:07.500Z,65.40
2017-05-26T00:32:08.224Z,66.07
2017-05-26T00:33:18.348Z,66.47
2017-05-26T00:34:07.579Z,66.44
2017-05-26T00:35:08.150Z,66.32
2017-05-26T00:36:07.781Z,66.44
2017-05-26T00:37:07.442Z,66.39
2017-05-26T00:38:08.143Z,66.34
2017-05-26T00:39:07.791Z,66.30
2017-05-26T00:40:07.387Z,66.00
2017-05-26T00:41:08.060Z,65.88
2017-05-26T00:42:07.660Z,65.79
2017-05-26T00:43:08.323Z,66.22
2017-05-26T00:44:08.013Z,66.41
2017-05-26T00:45:07.735Z,66.45
2017-05-26T00:46:08.285Z,66.42
2017-05-26T00:47:07.963Z,66.45
2017-05-26T00:48:07.717Z,66.01
2017-05-26T00:49:08.367Z,65.77
2017-05-26T00:50:07.896Z,65.93
2017-05-26T00:51:07.517Z,65.70
2017-05-26T00:52:08.166Z,65.43
2017-05-26T00:53:07.826Z,65.50
2017-05-26T00:54:07.473Z,65.22
2017-05-26T00:55:08.118Z,66.11
2017-05-26T00:56:07.780Z,66.02
2017-05-26T00:57:07.414Z,66.17
2017-05-26T00:58:08.070Z,66.31
2017-05-26T00:59:07.725Z,66.49
2017-05-26T01:00:08.368Z,66.63
2017-05-26T01:01:07.958Z,66.67
2017-05-26T01:02:07.581Z,66.76
2017-05-26T01:03:08.268Z,66.59
2017-05-26T01:04:07.982Z,66.67
2017-05-26T01:05:07.535Z,66.67
2017-05-26T01:06:08.197Z,66.76
2017-05-26T01:07:07.863Z,67.05
2017-05-26T01:08:07.599Z,67.00
2017-05-26T01:09:08.216Z,67.30
2017-05-26T01:10:07.910Z,67.42
2017-05-26T01:11:07.496Z,67.49
2017-05-26T01:12:08.154Z,67.50
2017-05-26T01:13:07.804Z,67.31
2017-05-26T01:14:07.591Z,66.96
2017-05-26T01:15:08.257Z,67.20
2017-05-26T01:16:07.720Z,67.42
2017-05-26T01:17:08.473Z,67.41
2017-05-26T01:18:08.107Z,67.39
2017-05-26T01:19:07.860Z,67.55
2017-05-26T01:20:07.497Z,67.25
2017-05-26T01:21:08.126Z,67.36
2017-05-26T01:22:07.789Z,67.48
2017-05-26T01:23:07.398Z,67.70
2017-05-26T01:24:08.138Z,67.66
2017-05-26T01:25:07.708Z,67.79
2017-05-26T01:26:08.447Z,67.78
2017-05-26T01:27:07.968Z,67.55
2017-05-26T01:28:07.640Z,67.65
2017-05-26T01:29:08.343Z,67.65
2017-05-26T01:30:07.991Z,67.68
2017-05-26T01:31:07.647Z,67.43
2017-05-26T01:32:08.266Z,67.60
2017-05-26T01:33:07.940Z,67.58
2017-05-26T01:34:07.672Z,67.49
2017-05-26T01:35:08.216Z,67.27
2017-05-26T01:36:07.982Z,67.19
2017-05-26T01:37:07.648Z,66.90
2017-05-26T01:38:08.271Z,67.19
2017-05-26T01:39:08.005Z,67.43
2017-05-26T01:40:07.619Z,67.20
2017-05-26T01:41:08.304Z,67.30
2017-05-26T01:42:07.907Z,67.15
2017-05-26T01:43:07.576Z,67.39
2017-05-26T01:44:08.240Z,67.25
2017-05-26T01:45:07.933Z,67.43
2017-05-26T01:46:07.476Z,67.26
2017-05-26T01:47:08.115Z,67.08
2017-05-26T01:48:07.816Z,67.31
2017-05-26T01:49:07.472Z,67.38
2017-05-26T01:50:08.043Z,67.50
2017-05-26T01:51:07.709Z,67.48
2017-05-26T01:52:08.355Z,67.44
2017-05-26T01:53:08.018Z,67.67
2017-05-26T01:54:07.773Z,67.54
2017-05-26T01:55:08.355Z,67.82
2017-05-26T01:56:07.959Z,67.87
2017-05-26T01:57:07.617Z,67.90
2017-05-26T01:58:08.291Z,67.66
2017-05-26T01:59:07.959Z,67.68
2017-05-26T02:00:07.601Z,67.72
2017-05-26T02:01:08.269Z,67.32
2017-05-26T02:02:07.910Z,67.20
2017-05-26T02:03:07.546Z,66.63
2017-05-26T02:04:08.349Z,66.40
2017-05-26T02:05:07.822Z,66.51
2017-05-26T02:06:07.547Z,66.60
2017-05-26T02:07:08.281Z,66.26
2017-05-26T02:08:07.896Z,66.16
2017-05-26T02:09:07.514Z,65.97
2017-05-26T02:10:08.161Z,65.87
2017-05-26T02:11:07.751Z,65.82
2017-05-26T02:12:07.414Z,66.23
2017-05-26T02:13:08.063Z,66.07
2017-05-26T02:14:07.681Z,66.43
2017-05-26T02:15:08.499Z,66.63
2017-05-26T02:16:08.029Z,67.10
2017-05-26T02:17:07.723Z,67.25
2017-05-26T02:18:07.438Z,67.27
2017-05-26T02:19:08.106Z,67.40
2017-05-26T02:20:07.693Z,67.44
2017-05-26T02:21:08.371Z,67.26
2017-05-26T02:22:08.014Z,67.37
2017-05-26T02:23:07.639Z,67.45
2017-05-26T02:24:08.289Z,67.37
2017-05-26T02:25:07.925Z,67.37
2017-05-26T02:26:07.611Z,67.31
2017-05-26T02:27:08.250Z,67.37
2017-05-26T02:28:07.878Z,67.54
2017-05-26T02:29:07.542Z,67.28
2017-05-26T02:30:08.193Z,67.27
2017-05-26T02:31:07.905Z,67.35
2017-05-26T02:32:07.528Z,67.19
2017-05-26T02:33:08.161Z,67.15
2017-05-26T02:34:07.919Z,67.35
2017-05-26T02:35:07.488Z,67.25
2017-05-26T02:36:08.251Z,67.22
2017-05-26T02:37:07.762Z,67.00
2017-05-26T02:38:07.486Z,67.17
2017-05-26T02:39:08.041Z,67.44
2017-05-26T02:40:07.712Z,67.94
2017-05-26T02:41:08.417Z,67.88
2017-05-26T02:42:08.142Z,67.83
2017-05-26T02:43:07.668Z,67.91
2017-05-26T02:44:08.303Z,67.85
2017-05-26T02:45:08.053Z,67.89
2017-05-26T02:46:07.618Z,67.86
2017-05-26T02:47:08.290Z,67.71
2017-05-26T02:48:07.914Z,67.65
2017-05-26T02:49:07.562Z,67.76
2017-05-26T02:50:08.233Z,67.93
2017-05-26T02:51:07.969Z,67.97
2017-05-26T02:52:07.525Z,67.88
2017-05-26T02:53:08.153Z,68.01
2017-05-26T02:54:07.940Z,68.14
2017-05-26T02:55:07.499Z,67.67
2017-05-26T02:56:08.239Z,67.75
2017-05-26T02:57:07.871Z,67.74
2017-05-26T02:58:07.443Z,67.95
2017-05-26T02:59:08.132Z,67.95
2017-05-26T03:00:07.791Z,67.95
2017-05-26T03:01:07.505Z,68.08
2017-05-26T03:02:08.093Z,68.16
2017-05-26T03:03:07.742Z,68.09
2017-05-26T03:04:08.647Z,68.29
2017-05-26T03:05:08.041Z,68.58
2017-05-26T03:06:07.763Z,68.50
2017-05-26T03:07:08.385Z,68.40
2017-05-26T03:08:08.041Z,68.39
2017-05-26T03:09:15.198Z,68.58
2017-05-26T03:10:08.340Z,68.37
2017-05-26T03:11:08.056Z,68.04
2017-05-26T03:12:07.639Z,68.24
2017-05-26T03:13:08.353Z,68.23
2017-05-26T03:14:07.947Z,68.23
2017-05-26T03:15:07.669Z,68.04
2017-05-26T03:16:08.235Z,68.15
2017-05-26T03:17:08.067Z,68.08
2017-05-26T03:18:08.328Z,68.27
2017-05-26T03:19:08.401Z,68.00
2017-05-26T03:20:07.957Z,68.31
2017-05-26T03:21:07.703Z,68.09
2017-05-26T03:22:08.341Z,67.80
2017-05-26T03:23:07.914Z,67.88
2017-05-26T03:24:07.603Z,67.67
2017-05-26T03:25:08.299Z,67.76
2017-05-26T03:26:07.897Z,68.06
2017-05-26T03:27:07.649Z,68.14
2017-05-26T03:28:08.200Z,68.11
2017-05-26T03:29:07.870Z,68.49
2017-05-26T03:30:07.541Z,68.85
2017-05-26T03:31:08.139Z,68.36
2017-05-26T03:32:07.915Z,68.35
2017-05-26T03:33:07.511Z,68.46
2017-05-26T03:34:08.270Z,68.53
2017-05-26T03:35:07.795Z,68.72
2017-05-26T03:36:07.542Z,68.69
2017-05-26T03:37:08.312Z,69.10
2017-05-26T03:38:07.965Z,69.29
2017-05-26T03:39:07.493Z,69.17
2017-05-26T03:40:08.200Z,69.19
2017-05-26T03:41:07.866Z,69.39
2017-05-26T03:42:07.510Z,69.41
2017-05-26T03:43:08.194Z,69.23
2017-05-26T03:44:07.791Z,69.23
2017-05-26T03:45:07.465Z,69.06
2017-05-26T03:46:08.074Z,69.05
2017-05-26T03:47:07.718Z,68.83
2017-05-26T03:48:08.463Z,68.46
2017-05-26T03:49:08.030Z,68.53
2017-05-26T03:50:07.750Z,68.46
2017-05-26T03:51:08.363Z,68.23
2017-05-26T03:52:07.990Z,68.25
2017-05-26T03:53:07.693Z,68.67
2017-05-26T03:54:08.350Z,68.95
2017-05-26T03:55:07.996Z,69.01
2017-05-26T03:56:07.621Z,69.11
2017-05-26T03:57:08.334Z,69.22
2017-05-26T03:58:07.961Z,69.11
2017-05-26T03:59:07.677Z,69.46
2017-05-26T04:00:08.290Z,69.44
2017-05-26T04:01:07.923Z,69.13
2017-05-26T04:02:07.535Z,68.81
2017-05-26T04:03:08.215Z,68.82
2017-05-26T04:04:07.899Z,69.03
2017-05-26T04:05:07.668Z,69.29
2017-05-26T04:06:08.207Z,69.29
2017-05-26T04:07:08.843Z,69.51
2017-05-26T04:08:07.495Z,69.56
2017-05-26T04:09:08.225Z,69.70
2017-05-26T04:10:07.810Z,69.49
2017-05-26T04:11:07.410Z,69.43
2017-05-26T04:12:08.148Z,69.59
2017-05-26T04:13:07.745Z,69.76
2017-05-26T04:14:08.415Z,69.82
2017-05-26T04:15:08.099Z,69.83
2017-05-26T04:16:07.606Z,69.82
2017-05-26T04:17:08.407Z,69.94
2017-05-26T04:18:08.116Z,69.99
2017-05-26T04:19:15.280Z,69.91
2017-05-26T04:20:07.484Z,70.14
2017-05-26T04:21:08.079Z,70.06
2017-05-26T04:22:07.813Z,70.20
2017-05-26T04:23:07.408Z,70.26
2017-05-26T04:24:08.072Z,70.40
2017-05-26T04:25:10.327Z,70.36
2017-05-26T04:26:08.058Z,70.30
2017-05-26T04:27:07.702Z,70.60
2017-05-26T04:28:08.371Z,70.49
2017-05-26T04:29:08.003Z,70.19
2017-05-26T04:30:07.701Z,70.10
2017-05-26T04:31:08.399Z,70.14
2017-05-26T04:32:08.014Z,70.45
2017-05-26T04:33:07.704Z,70.48
2017-05-26T04:34:08.365Z,70.17
2017-05-26T04:35:08.039Z,70.15
2017-05-26T04:36:07.790Z,70.31
2017-05-26T04:37:08.358Z,70.60
2017-05-26T04:38:07.970Z,70.75
2017-05-26T04:39:07.597Z,70.62
2017-05-26T04:40:08.286Z,70.72
2017-05-26T04:41:08.175Z,70.63
2017-05-26T04:42:07.794Z,70.69
2017-05-26T04:43:07.427Z,70.81
2017-05-26T04:44:08.052Z,70.66
2017-05-26T04:45:07.832Z,70.56
2017-05-26T04:46:08.430Z,70.67
2017-05-26T04:47:15.579Z,70.92
2017-05-26T04:48:07.701Z,70.54
2017-05-26T04:49:08.422Z,70.64
2017-05-26T04:50:08.065Z,71.26
2017-05-26T04:51:07.765Z,71.37
2017-05-26T04:52:08.371Z,71.54
2017-05-26T04:53:08.017Z,71.91
2017-05-26T04:54:07.680Z,71.71
2017-05-26T04:55:08.365Z,71.68
2017-05-26T04:56:08.087Z,71.42
2017-05-26T04:57:07.701Z,71.29
2017-05-26T04:58:08.395Z,70.90
2017-05-26T04:59:08.074Z,70.98
2017-05-26T05:00:07.689Z,70.72
2017-05-26T05:01:08.361Z,70.66
2017-05-26T05:02:07.996Z,70.30
2017-05-26T05:03:07.638Z,70.25
2017-05-26T05:04:08.282Z,70.46
2017-05-26T05:05:07.989Z,70.78
2017-05-26T05:06:07.649Z,70.82
2017-05-26T05:07:08.246Z,70.94
2017-05-26T05:08:07.927Z,71.61
2017-05-26T05:09:07.572Z,71.87
2017-05-26T05:10:08.233Z,71.46
2017-05-26T05:11:07.941Z,70.95
2017-05-26T05:12:07.572Z,71.21
2017-05-26T05:13:08.247Z,71.53
2017-05-26T05:14:07.945Z,71.56
2017-05-26T05:15:07.596Z,71.52
2017-05-26T05:16:08.375Z,71.36
2017-05-26T05:17:08.002Z,71.20
2017-05-26T05:18:07.727Z,71.25
2017-05-26T05:19:08.395Z,71.83
2017-05-26T05:20:08.136Z,71.63
2017-05-26T05:21:07.697Z,71.30
2017-05-26T05:22:08.412Z,71.15
2017-05-26T05:23:08.071Z,71.48
2017-05-26T05:24:07.718Z,71.73
2017-05-26T05:25:08.338Z,71.82
2017-05-26T05:26:07.986Z,71.48
2017-05-26T05:27:07.666Z,71.29
2017-05-26T05:28:08.294Z,70.45
2017-05-26T05:29:07.921Z,69.84
2017-05-26T05:30:07.591Z,70.28
2017-05-26T05:31:08.199Z,70.46
2017-05-26T05:32:07.901Z,70.62
2017-05-26T05:33:07.442Z,69.86
2017-05-26T05:34:08.154Z,69.11
2017-05-26T05:35:07.855Z,69.84
2017-05-26T05:36:07.454Z,70.85
2017-05-26T05:37:08.153Z,70.71
2017-05-26T05:38:07.829Z,70.62
2017-05-26T05:39:07.438Z,70.20
2017-05-26T05:40:08.088Z,70.26
2017-05-26T05:41:07.727Z,70.39
2017-05-26T05:42:08.411Z,70.18
2017-05-26T05:43:08.042Z,71.57
2017-05-26T05:44:07.712Z,71.17
2017-05-26T05:45:08.504Z,70.25
2017-05-26T05:46:07.986Z,70.01
2017-05-26T05:47:07.683Z,69.05
2017-05-26T05:48:08.325Z,69.46
2017-05-26T05:49:07.938Z,69.06
2017-05-26T05:50:07.656Z,68.47
2017-05-26T05:51:08.219Z,68.24
2017-05-26T05:52:07.941Z,68.53
2017-05-26T05:53:07.572Z,68.61
2017-05-26T05:54:08.203Z,68.73
2017-05-26T05:55:07.861Z,69.08
2017-05-26T05:56:07.547Z,68.85
2017-05-26T05:57:08.237Z,68.69
2017-05-26T05:58:07.923Z,68.40
2017-05-26T05:59:07.556Z,68.29
2017-05-26T06:00:08.226Z,68.62
2017-05-26T06:01:07.902Z,68.49
2017-05-26T06:02:07.569Z,68.25
2017-05-26T06:03:08.222Z,68.51
2017-05-26T06:04:07.891Z,68.06
2017-05-26T06:05:08.116Z,68.20
2017-05-26T06:06:07.810Z,67.81
2017-05-26T06:07:07.474Z,67.08
2017-05-26T06:08:08.050Z,66.67
2017-05-26T06:09:07.707Z,66.66
2017-05-26T06:10:08.428Z,67.66
2017-05-26T06:11:08.019Z,67.24
2017-05-26T06:12:07.727Z,67.02
2017-05-26T06:13:08.357Z,66.88
2017-05-26T06:14:08.055Z,66.50
2017-05-26T06:15:07.716Z,66.03
2017-05-26T06:16:08.308Z,65.73
2017-05-26T06:17:08.286Z,66.36
2017-05-26T06:18:07.848Z,65.87
2017-05-26T06:19:07.554Z,65.66
2017-05-26T06:20:08.257Z,65.63
2017-05-26T06:21:07.860Z,65.49
2017-05-26T06:22:07.549Z,65.44
2017-05-26T06:23:08.225Z,66.50
2017-05-26T06:24:07.883Z,66.55
2017-05-26T06:25:07.525Z,66.04
2017-05-26T06:26:08.207Z,65.73
2017-05-26T06:27:07.902Z,65.08
2017-05-26T06:28:07.549Z,65.01
2017-05-26T06:29:08.187Z,65.31
2017-05-26T06:30:07.906Z,65.41
2017-05-26T06:31:07.535Z,65.18
2017-05-26T06:32:08.245Z,64.94
2017-05-26T06:33:07.845Z,64.84
2017-05-26T06:34:07.504Z,65.11
2017-05-26T06:35:08.185Z,65.32
2017-05-26T06:36:07.809Z,65.91
2017-05-26T06:37:07.506Z,65.66
2017-05-26T06:38:08.068Z,65.18
2017-05-26T06:39:07.981Z,65.12
2017-05-26T06:40:07.650Z,64.98
2017-05-26T06:41:08.347Z,64.75
2017-05-26T06:42:08.012Z,64.53
2017-05-26T06:43:07.625Z,64.51
2017-05-26T06:44:08.292Z,64.36
2017-05-26T06:45:08.034Z,64.53
2017-05-26T06:46:07.592Z,64.45
2017-05-26T06:47:08.269Z,64.31
2017-05-26T06:48:07.915Z,64.07
2017-05-26T06:49:07.535Z,64.31
2017-05-26T06:50:08.259Z,64.21
2017-05-26T06:51:07.887Z,64.20
2017-05-26T06:52:07.512Z,64.30
2017-05-26T06:53:08.253Z,64.27
2017-05-26T06:54:07.855Z,64.25
2017-05-26T06:55:07.495Z,64.55
2017-05-26T06:56:08.180Z,64.39
2017-05-26T06:57:07.874Z,63.93
2017-05-26T06:58:07.510Z,63.59
2017-05-26T06:59:08.204Z,63.56
2017-05-26T07:00:17.353Z,63.47
2017-05-26T07:01:07.538Z,63.17
2017-05-26T07:02:08.086Z,63.10
2017-05-26T07:03:07.827Z,63.27
2017-05-26T07:04:07.418Z,63.49
2017-05-26T07:05:08.154Z,63.34
2017-05-26T07:06:07.699Z,63.77
2017-05-26T07:07:08.403Z,63.43
2017-05-26T07:08:08.086Z,63.31
2017-05-26T07:09:07.786Z,63.07
2017-05-26T07:10:08.370Z,62.02
2017-05-26T07:11:08.037Z,62.03
2017-05-26T07:12:07.684Z,61.96
2017-05-26T07:13:08.390Z,62.08
2017-05-26T07:14:08.003Z,62.20
2017-05-26T07:15:07.695Z,62.40
2017-05-26T07:16:08.329Z,62.66
2017-05-26T07:17:08.021Z,62.77
2017-05-26T07:18:07.854Z,62.83
2017-05-26T07:19:07.434Z,63.04
2017-05-26T07:20:08.178Z,62.79
2017-05-26T07:21:07.798Z,62.57
2017-05-26T07:22:07.468Z,62.04
2017-05-26T07:23:08.207Z,61.70
2017-05-26T07:24:07.774Z,61.19
2017-05-26T07:25:07.429Z,61.10
2017-05-26T07:26:08.066Z,61.36
2017-05-26T07:27:07.719Z,61.53
2017-05-26T07:28:08.465Z,61.80
2017-05-26T07:29:08.144Z,62.00
2017-05-26T07:30:07.849Z,61.68
2017-05-26T07:31:07.496Z,61.64
2017-05-26T07:32:08.210Z,61.49
2017-05-26T07:33:07.827Z,61.41
2017-05-26T07:34:07.482Z,60.99
2017-05-26T07:35:08.151Z,61.22
2017-05-26T07:36:07.776Z,61.29
2017-05-26T07:37:07.437Z,61.26
2017-05-26T07:38:08.068Z,61.38
2017-05-26T07:39:07.769Z,61.42
2017-05-26T07:40:08.360Z,61.97
2017-05-26T07:41:08.074Z,62.23
2017-05-26T07:42:07.680Z,62.47
2017-05-26T07:43:18.848Z,62.27
2017-05-26T07:44:08.060Z,62.38
2017-05-26T07:45:07.760Z,62.42
2017-05-26T07:46:08.335Z,62.39
2017-05-26T07:47:08.025Z,62.30
2017-05-26T07:48:07.637Z,61.94
2017-05-26T07:49:08.355Z,61.63
2017-05-26T07:50:07.984Z,61.02
2017-05-26T07:51:07.712Z,60.89
2017-05-26T07:52:08.294Z,60.87
2017-05-26T07:53:07.904Z,61.08
2017-05-26T07:54:07.597Z,60.98
2017-05-26T07:55:08.200Z,60.86
2017-05-26T07:56:07.825Z,60.60
2017-05-26T07:57:08.533Z,59.84
2017-05-26T07:58:08.126Z,59.66
2017-05-26T07:59:07.869Z,60.01
2017-05-26T08:00:07.429Z,59.73
2017-05-26T08:01:08.088Z,59.64
2017-05-26T08:02:07.693Z,59.44
2017-05-26T08:03:08.403Z,59.35
2017-05-26T08:04:08.072Z,59.54
2017-05-26T08:05:07.706Z,59.62
2017-05-26T08:06:08.420Z,59.90
2017-05-26T08:07:07.992Z,59.56
2017-05-26T08:08:07.676Z,59.86
2017-05-26T08:09:08.383Z,59.93
2017-05-26T08:10:07.974Z,59.74
2017-05-26T08:11:07.692Z,59.79
2017-05-26T08:12:08.832Z,60.50
2017-05-26T08:13:07.940Z,60.62
2017-05-26T08:14:07.607Z,60.07
2017-05-26T08:15:08.393Z,60.40
2017-05-26T08:16:07.951Z,60.61
2017-05-26T08:17:07.781Z,60.83
2017-05-26T08:18:07.471Z,60.43
2017-05-26T08:19:08.115Z,59.86
2017-05-26T08:20:07.803Z,60.02
2017-05-26T08:21:07.462Z,60.25
2017-05-26T08:22:08.101Z,60.36
2017-05-26T08:23:07.781Z,60.33
2017-05-26T08:24:07.482Z,59.96
2017-05-26T08:25:08.115Z,59.15
2017-05-26T08:26:07.772Z,59.58
2017-05-26T08:27:07.476Z,59.62
2017-05-26T08:28:08.078Z,59.63
2017-05-26T08:29:07.733Z,59.38
2017-05-26T08:30:08.429Z,60.00
2017-05-26T08:31:08.005Z,60.07
2017-05-26T08:32:07.727Z,59.70
2017-05-26T08:33:08.369Z,60.71
2017-05-26T08:34:07.992Z,60.88
2017-05-26T08:35:07.771Z,61.16
2017-05-26T08:36:08.342Z,61.19
2017-05-26T08:37:07.977Z,60.83
2017-05-26T08:38:07.604Z,59.71
2017-05-26T08:39:08.248Z,59.05
2017-05-26T08:40:08.007Z,59.49
2017-05-26T08:41:08.063Z,59.93
2017-05-26T08:42:07.705Z,60.07
2017-05-26T08:43:08.300Z,59.80
2017-05-26T08:44:07.961Z,59.72
2017-05-26T08:45:07.753Z,59.95
2017-05-26T08:46:08.334Z,61.14
2017-05-26T08:47:07.928Z,61.82
2017-05-26T08:48:07.633Z,61.56
2017-05-26T08:49:08.245Z,60.94
2017-05-26T08:50:07.949Z,60.85
2017-05-26T08:51:07.606Z,59.92
2017-05-26T08:52:15.714Z,58.82
2017-05-26T08:53:07.943Z,58.81
2017-05-26T08:54:07.539Z,58.93
2017-05-26T08:55:08.195Z,59.08
2017-05-26T08:56:07.865Z,60.19
2017-05-26T08:57:07.501Z,60.01
2017-05-26T08:58:08.182Z,58.49
2017-05-26T08:59:07.789Z,58.16
2017-05-26T09:00:07.472Z,57.30
2017-05-26T09:01:08.093Z,57.68
2017-05-26T09:02:07.780Z,57.49
2017-05-26T09:03:08.393Z,57.42
2017-05-26T09:04:08.073Z,57.14
2017-05-26T09:05:07.766Z,56.65
2017-05-26T09:06:08.480Z,56.55
2017-05-26T09:07:08.073Z,56.45
2017-05-26T09:08:07.710Z,56.44
2017-05-26T09:09:08.382Z,57.69
2017-05-26T09:10:08.095Z,56.44
2017-05-26T09:11:07.632Z,55.90
2017-05-26T09:12:08.252Z,54.79
2017-05-26T09:13:07.920Z,55.08
2017-05-26T09:14:07.568Z,55.73
2017-05-26T09:15:08.380Z,56.05
2017-05-26T09:16:07.897Z,56.13
2017-05-26T09:17:07.633Z,55.68
2017-05-26T09:18:08.289Z,55.72
2017-05-26T09:19:07.930Z,56.11
2017-05-26T09:20:07.642Z,56.55
2017-05-26T09:21:08.350Z,55.87
2017-05-26T09:22:07.931Z,57.24
2017-05-26T09:23:07.580Z,57.67
2017-05-26T09:24:08.273Z,56.72
2017-05-26T09:25:08.005Z,57.22
2017-05-26T09:26:07.496Z,58.42
2017-05-26T09:27:08.171Z,55.37
2017-05-26T09:28:07.796Z,55.93
2017-05-26T09:29:07.572Z,55.62
2017-05-26T09:30:08.135Z,57.01
2017-05-26T09:31:08.826Z,56.37
2017-05-26T09:32:07.456Z,55.44
2017-05-26T09:33:08.055Z,54.06
2017-05-26T09:34:07.751Z,53.64
2017-05-26T09:35:07.489Z,56.35
2017-05-26T09:36:08.091Z,55.33
2017-05-26T09:37:07.753Z,55.57
2017-05-26T09:38:07.416Z,55.69
2017-05-26T09:39:08.106Z,54.87
2017-05-26T09:40:07.774Z,54.90
2017-05-26T09:41:07.469Z,55.93
2017-05-26T09:42:08.116Z,54.72
2017-05-26T09:43:07.730Z,55.36
2017-05-26T09:44:08.320Z,55.14
2017-05-26T09:45:08.180Z,54.32
2017-05-26T09:46:07.708Z,53.99
2017-05-26T09:47:08.318Z,53.40
2017-05-26T09:48:07.969Z,52.77
2017-05-26T09:49:07.693Z,52.54
2017-05-26T09:50:08.374Z,53.35
2017-05-26T09:51:08.061Z,53.37
2017-05-26T09:52:07.647Z,53.36
2017-05-26T09:53:08.353Z,53.52
2017-05-26T09:54:07.936Z,53.62
2017-05-26T09:55:07.604Z,54.70
2017-05-26T09:56:08.254Z,56.30
2017-05-26T09:57:07.860Z,54.80
2017-05-26T09:58:07.553Z,54.69
2017-05-26T09:59:08.192Z,54.31
2017-05-26T10:00:07.869Z,53.90
2017-05-26T10:01:07.445Z,53.80
2017-05-26T10:02:08.110Z,54.55
2017-05-26T10:03:07.785Z,55.14
2017-05-26T10:04:07.465Z,56.84
2017-05-26T10:05:08.167Z,56.10
2017-05-26T10:06:07.833Z,55.40
2017-05-26T10:07:07.453Z,55.40
2017-05-26T10:08:08.086Z,57.15
2017-05-26T10:09:07.689Z,55.77
2017-05-26T10:10:07.440Z,56.47
2017-05-26T10:11:08.106Z,55.80
2017-05-26T10:12:07.720Z,56.01
2017-05-26T10:13:08.381Z,54.17
2017-05-26T10:14:08.040Z,54.58
2017-05-26T10:15:07.816Z,53.27
2017-05-26T10:16:08.289Z,54.10
2017-05-26T10:17:08.001Z,55.53
2017-05-26T10:18:07.778Z,55.00
2017-05-26T10:19:07.430Z,56.69
2017-05-26T10:20:08.130Z,56.97
2017-05-26T10:21:07.819Z,55.27
2017-05-26T10:22:07.440Z,55.01
2017-05-26T10:23:08.079Z,56.64
2017-05-26T10:24:07.755Z,55.12
2017-05-26T10:25:08.487Z,53.96
2017-05-26T10:26:08.010Z,54.45
2017-05-26T10:27:07.713Z,54.79
2017-05-26T10:28:08.374Z,54.74
2017-05-26T10:29:08.002Z,55.43
2017-05-26T10:30:07.595Z,58.52
2017-05-26T10:31:08.306Z,58.62
2017-05-26T10:32:07.937Z,57.83
2017-05-26T10:33:07.559Z,57.89
2017-05-26T10:34:08.246Z,58.09
2017-05-26T10:35:07.897Z,58.17
2017-05-26T10:36:07.688Z,57.99
2017-05-26T10:37:08.255Z,57.41
2017-05-26T10:38:07.894Z,58.39
2017-05-26T10:39:07.560Z,59.79
2017-05-26T10:40:08.220Z,58.36
2017-05-26T10:41:07.913Z,55.85
2017-05-26T10:42:07.555Z,55.10
2017-05-26T10:43:08.203Z,55.37
2017-05-26T10:44:07.835Z,53.40
2017-05-26T10:45:07.612Z,55.16
2017-05-26T10:46:08.346Z,55.36
2017-05-26T10:47:07.874Z,56.28
2017-05-26T10:48:08.615Z,55.63
2017-05-26T10:49:08.174Z,54.54
2017-05-26T10:50:07.804Z,53.18
2017-05-26T10:51:07.548Z,53.01
2017-05-26T10:52:08.209Z,52.75
2017-05-26T10:53:07.865Z,53.27
2017-05-26T10:54:07.522Z,54.21
2017-05-26T10:55:08.164Z,55.53
2017-05-26T10:56:07.964Z,56.00
2017-05-26T10:57:07.437Z,56.15
2017-05-26T10:58:08.315Z,55.95
2017-05-26T10:59:07.701Z,55.75
2017-05-26T11:00:08.396Z,56.37
2017-05-26T11:01:08.072Z,56.78
2017-05-26T11:02:07.741Z,57.73
2017-05-26T11:03:08.373Z,55.65
2017-05-26T11:04:08.051Z,55.42
2017-05-26T11:05:07.679Z,55.28
2017-05-26T11:06:08.497Z,53.34
2017-05-26T11:07:08.019Z,53.02
2017-05-26T11:08:07.662Z,52.85
2017-05-26T11:09:08.311Z,55.91
2017-05-26T11:10:07.991Z,54.29
2017-05-26T11:11:07.739Z,53.02
2017-05-26T11:12:08.258Z,51.96
2017-05-26T11:13:07.936Z,52.21
2017-05-26T11:14:07.575Z,52.58
2017-05-26T11:15:08.360Z,52.37
2017-05-26T11:16:08.031Z,52.02
2017-05-26T11:17:07.671Z,52.43
2017-05-26T11:18:08.360Z,52.28
2017-05-26T11:19:08.063Z,52.38
2017-05-26T11:20:07.681Z,52.60
2017-05-26T11:21:08.407Z,51.88
2017-05-26T11:22:08.063Z,52.37
2017-05-26T11:23:07.658Z,52.92
2017-05-26T11:24:08.282Z,53.75
2017-05-26T11:25:07.935Z,53.94
2017-05-26T11:26:07.610Z,53.75
2017-05-26T11:27:08.290Z,54.92
2017-05-26T11:28:07.871Z,54.58
2017-05-26T11:29:07.499Z,54.68
2017-05-26T11:30:08.228Z,54.35
2017-05-26T11:31:07.820Z,55.66
2017-05-26T11:32:07.600Z,54.30
2017-05-26T11:33:08.204Z,52.49
2017-05-26T11:34:07.854Z,52.93
2017-05-26T11:35:07.482Z,54.88
2017-05-26T11:36:08.165Z,53.44
2017-05-26T11:37:07.768Z,52.91
2017-05-26T11:38:08.336Z,52.37
2017-05-26T11:39:08.001Z,52.80
2017-05-26T11:40:07.662Z,51.75
2017-05-26T11:41:08.311Z,51.07
2017-05-26T11:42:08.016Z,51.13
2017-05-26T11:43:14.318Z,51.22
2017-05-26T11:44:08.260Z,52.35
2017-05-26T11:45:08.316Z,52.89
2017-05-26T11:46:07.624Z,52.67
2017-05-26T11:47:08.358Z,52.48
2017-05-26T11:48:07.968Z,52.37
2017-05-26T11:49:07.644Z,52.47
2017-05-26T11:50:08.316Z,55.90
2017-05-26T11:51:08.005Z,56.89
2017-05-26T11:52:07.601Z,55.58
2017-05-26T11:53:08.313Z,54.50
2017-05-26T11:54:07.914Z,55.34
2017-05-26T11:55:07.653Z,55.71
2017-05-26T11:56:08.196Z,55.06
2017-05-26T11:57:07.874Z,54.57
2017-05-26T11:58:07.569Z,53.22
2017-05-26T11:59:08.232Z,54.31
2017-05-26T12:00:07.836Z,55.45
2017-05-26T12:01:07.469Z,55.00
2017-05-26T12:02:08.122Z,56.31
2017-05-26T12:03:07.870Z,54.71
2017-05-26T12:04:07.438Z,53.82
2017-05-26T12:05:08.096Z,52.65
2017-05-26T12:06:07.785Z,51.96
2017-05-26T12:07:07.401Z,51.97
2017-05-26T12:08:08.124Z,51.82
2017-05-26T12:09:07.942Z,52.25
2017-05-26T12:10:07.434Z,52.05
2017-05-26T12:11:08.104Z,51.33
2017-05-26T12:12:07.730Z,53.19
2017-05-26T12:13:08.379Z,54.23
2017-05-26T12:14:08.034Z,56.21
2017-05-26T12:15:07.745Z,57.23
2017-05-26T12:16:08.355Z,55.36
2017-05-26T12:17:08.083Z,55.03
2017-05-26T12:18:07.904Z,54.21
2017-05-26T12:19:08.467Z,54.55
2017-05-26T12:20:08.082Z,55.72
2017-05-26T12:21:07.762Z,54.82
2017-05-26T12:22:07.430Z,54.13
2017-05-26T12:23:08.184Z,53.55
2017-05-26T12:24:07.720Z,53.96
2017-05-26T12:25:08.347Z,56.01
2017-05-26T12:26:08.015Z,55.50
2017-05-26T12:27:07.711Z,55.01
2017-05-26T12:28:08.373Z,55.70
2017-05-26T12:29:08.025Z,54.82
2017-05-26T12:30:07.729Z,53.42
2017-05-26T12:31:08.293Z,52.61
2017-05-26T12:32:08.011Z,53.68
2017-05-26T12:33:07.705Z,53.90
2017-05-26T12:34:07.412Z,51.75
2017-05-26T12:35:08.051Z,50.79
2017-05-26T12:36:07.772Z,50.35
2017-05-26T12:37:07.395Z,50.08
2017-05-26T12:38:08.190Z,49.33
2017-05-26T12:39:07.785Z,50.97
2017-05-26T12:40:07.412Z,51.15
2017-05-26T12:41:08.072Z,51.80
2017-05-26T12:42:07.706Z,51.48
2017-05-26T12:43:08.395Z,52.04
2017-05-26T12:44:08.036Z,52.94
2017-05-26T12:45:07.804Z,53.61
2017-05-26T12:46:07.465Z,53.57
2017-05-26T12:47:08.117Z,53.53
2017-05-26T12:48:07.726Z,53.20
2017-05-26T12:49:08.409Z,51.73
2017-05-26T12:50:08.069Z,52.20
2017-05-26T12:51:07.798Z,53.24
2017-05-26T12:52:08.419Z,52.88